Terminal Aerodrome Forecast
Issued by NWS Northern Indiana

Home | Current Version | Previous Version | Graphics & Text | Print | Product List | Glossary On
Versions: 1 2 3 4 5 6 7 8 9 10 11 12 13 14 15 16
000
FTUS43 KIWX 260520
TAFFWA
TAF
KFWA 260520Z 2606/2706 06012KT P6SM -SHRA SCT010 BKN060
      TEMPO 2608/2612 5SM -SHRA BR BKN010
     FM261200 15009KT 5SM SHRA BR OVC015
     FM261800 20011KT P6SM BKN040
      TEMPO 2618/2622 5SM SHRA BKN020=

USA.gov is the U.S. government's official web portal to all federal, state and local government web resources and services.